createdAt,value
2022-10-07T00:00:18.301Z,45.51
2022-10-07T00:01:18.320Z,45.12
2022-10-07T00:02:18.275Z,45.02
2022-10-07T00:03:18.230Z,45.12
2022-10-07T00:04:18.203Z,45.41
2022-10-07T00:05:18.178Z,45.46
2022-10-07T00:06:18.164Z,45.76
2022-10-07T00:07:18.195Z,45.56
2022-10-07T00:08:18.161Z,45.02
2022-10-07T00:09:18.165Z,45.31
2022-10-07T00:10:18.110Z,45.46
2022-10-07T00:11:18.133Z,45.51
2022-10-07T00:12:18.105Z,45.41
2022-10-07T00:13:18.072Z,45.61
2022-10-07T00:14:18.095Z,45.86
2022-10-07T00:15:18.049Z,45.66
2022-10-07T00:16:18.081Z,45.66
2022-10-07T00:17:18.040Z,45.66
2022-10-07T00:18:18.030Z,45.81
2022-10-07T00:19:18.026Z,45.91
2022-10-07T00:20:18.000Z,45.66
2022-10-07T00:21:17.998Z,45.76
2022-10-07T00:22:17.985Z,45.96
2022-10-07T00:23:17.963Z,45.96
2022-10-07T00:24:17.933Z,46.11
2022-10-07T00:25:17.937Z,46.47
2022-10-07T00:26:17.912Z,46.47
2022-10-07T00:27:17.902Z,46.52
2022-10-07T00:28:17.910Z,46.52
2022-10-07T00:29:17.903Z,46.63
2022-10-07T00:30:17.858Z,46.63
2022-10-07T00:31:17.913Z,46.63
2022-10-07T00:32:17.849Z,46.63
2022-10-07T00:33:17.834Z,46.73
2022-10-07T00:34:17.814Z,46.94
2022-10-07T00:35:17.811Z,47.15
2022-10-07T00:36:18.432Z,47.04
2022-10-07T00:37:17.741Z,47.10
2022-10-07T00:38:17.756Z,47.17
2022-10-07T00:39:17.737Z,47.36
2022-10-07T00:40:17.714Z,47.47
2022-10-07T00:41:17.708Z,47.47
2022-10-07T00:42:17.722Z,47.55
2022-10-07T00:43:17.683Z,47.60
2022-10-07T00:44:17.666Z,47.44
2022-10-07T00:45:17.681Z,47.47
2022-10-07T00:46:17.660Z,47.69
2022-10-07T00:47:17.620Z,47.10
2022-10-07T00:48:17.661Z,47.20
2022-10-07T00:49:17.610Z,47.20
2022-10-07T00:50:17.607Z,47.12
2022-10-07T00:51:17.584Z,47.28
2022-10-07T00:52:17.555Z,47.20
2022-10-07T00:53:17.538Z,47.33
2022-10-07T00:54:17.545Z,47.20
2022-10-07T00:55:17.539Z,47.33
2022-10-07T00:56:17.518Z,47.26
2022-10-07T00:57:17.517Z,47.36
2022-10-07T00:58:17.473Z,47.26
2022-10-07T00:59:17.459Z,47.79
2022-10-07T01:00:17.456Z,47.47
2022-10-07T01:01:17.533Z,47.50
2022-10-07T01:02:17.452Z,47.33
2022-10-07T01:03:17.412Z,47.55
2022-10-07T01:04:17.406Z,47.44
2022-10-07T01:05:17.403Z,47.36
2022-10-07T01:06:17.393Z,47.63
2022-10-07T01:07:17.373Z,47.71
2022-10-07T01:08:17.364Z,47.82
2022-10-07T01:09:17.347Z,47.79
2022-10-07T01:10:17.346Z,47.66
2022-10-07T01:11:17.331Z,47.88
2022-10-07T01:12:17.312Z,48.01
2022-10-07T01:13:17.309Z,47.99
2022-10-07T01:14:17.298Z,48.21
2022-10-07T01:15:17.256Z,48.21
2022-10-07T01:16:17.297Z,48.26
2022-10-07T01:17:17.228Z,48.15
2022-10-07T01:18:17.242Z,48.15
2022-10-07T01:19:17.198Z,48.04
2022-10-07T01:20:17.192Z,48.35
2022-10-07T01:21:17.173Z,48.40
2022-10-07T01:22:17.190Z,48.40
2022-10-07T01:23:17.169Z,48.37
2022-10-07T01:24:17.174Z,48.49
2022-10-07T01:25:17.127Z,48.51
2022-10-07T01:26:17.121Z,48.46
2022-10-07T01:27:17.102Z,48.57
2022-10-07T01:28:17.193Z,48.60
2022-10-07T01:29:17.092Z,48.54
2022-10-07T01:30:17.074Z,48.71
2022-10-07T01:31:17.133Z,48.37
2022-10-07T01:32:17.038Z,48.43
2022-10-07T01:33:17.036Z,48.29
2022-10-07T01:34:17.020Z,48.43
2022-10-07T01:35:17.037Z,48.49
2022-10-07T01:36:17.006Z,48.49
2022-10-07T01:37:16.963Z,48.49
2022-10-07T01:38:16.978Z,48.49
2022-10-07T01:39:16.958Z,48.74
2022-10-07T01:40:16.933Z,48.60
2022-10-07T01:41:16.944Z,48.80
2022-10-07T01:42:16.922Z,48.80
2022-10-07T01:43:16.931Z,49.03
2022-10-07T01:44:16.899Z,48.97
2022-10-07T01:45:16.881Z,48.88
2022-10-07T01:46:16.888Z,49.03
2022-10-07T01:47:16.862Z,49.03
2022-10-07T01:48:16.849Z,48.83
2022-10-07T01:49:16.810Z,49.03
2022-10-07T01:50:16.824Z,49.11
2022-10-07T01:51:16.808Z,49.00
2022-10-07T01:52:16.803Z,49.20
2022-10-07T01:53:16.758Z,49.40
2022-10-07T01:54:16.768Z,49.46
2022-10-07T01:55:16.738Z,49.67
2022-10-07T01:56:16.751Z,49.34
2022-10-07T01:57:16.732Z,49.52
2022-10-07T01:58:16.747Z,49.52
2022-10-07T01:59:16.699Z,49.69
2022-10-07T02:00:16.726Z,49.84
2022-10-07T02:01:16.718Z,49.78
2022-10-07T02:02:16.680Z,49.67
2022-10-07T02:03:16.752Z,49.75
2022-10-07T02:04:16.628Z,49.52
2022-10-07T02:05:16.644Z,49.72
2022-10-07T02:06:16.597Z,49.72
2022-10-07T02:07:16.584Z,49.58
2022-10-07T02:08:16.590Z,49.49
2022-10-07T02:09:16.580Z,49.78
2022-10-07T02:10:16.583Z,49.69
2022-10-07T02:11:16.526Z,49.90
2022-10-07T02:12:16.544Z,49.84
2022-10-07T02:13:16.518Z,49.99
2022-10-07T02:14:16.527Z,49.96
2022-10-07T02:15:16.496Z,50.05
2022-10-07T02:16:16.565Z,50.08
2022-10-07T02:17:16.448Z,50.29
2022-10-07T02:18:16.443Z,50.38
2022-10-07T02:19:16.448Z,50.53
2022-10-07T02:20:16.451Z,50.44
2022-10-07T02:21:16.410Z,50.41
2022-10-07T02:22:16.402Z,50.23
2022-10-07T02:23:16.393Z,50.32
2022-10-07T02:24:16.402Z,50.44
2022-10-07T02:25:16.346Z,50.35
2022-10-07T02:26:16.354Z,50.60
2022-10-07T02:27:16.335Z,50.53
2022-10-07T02:28:16.360Z,50.53
2022-10-07T02:29:16.296Z,50.63
2022-10-07T02:30:16.294Z,50.75
2022-10-07T02:31:16.367Z,50.87
2022-10-07T02:32:16.295Z,51.00
2022-10-07T02:33:16.306Z,50.90
2022-10-07T02:34:19.730Z,50.90
2022-10-07T02:35:16.243Z,50.90
2022-10-07T02:36:16.230Z,50.72
2022-10-07T02:37:16.192Z,50.90
2022-10-07T02:38:16.200Z,51.09
2022-10-07T02:39:16.205Z,51.12
2022-10-07T02:40:16.156Z,50.90
2022-10-07T02:41:16.176Z,51.18
2022-10-07T02:42:16.163Z,51.31
2022-10-07T02:43:16.126Z,51.12
2022-10-07T02:44:16.098Z,51.34
2022-10-07T02:45:16.086Z,51.34
2022-10-07T02:46:16.169Z,51.15
2022-10-07T02:47:16.083Z,51.43
2022-10-07T02:48:16.069Z,51.15
2022-10-07T02:49:16.031Z,51.28
2022-10-07T02:50:16.020Z,51.24
2022-10-07T02:51:20.618Z,51.24
2022-10-07T02:52:16.016Z,51.18
2022-10-07T02:53:15.977Z,51.06
2022-10-07T02:54:15.983Z,51.00
2022-10-07T02:55:15.984Z,50.93
2022-10-07T02:56:15.952Z,50.97
2022-10-07T02:57:15.979Z,50.81
2022-10-07T02:58:15.938Z,50.75
2022-10-07T02:59:15.927Z,50.69
2022-10-07T03:00:15.916Z,50.78
2022-10-07T03:01:15.937Z,50.69
2022-10-07T03:02:15.902Z,50.66
2022-10-07T03:03:15.917Z,50.78
2022-10-07T03:04:15.839Z,50.84
2022-10-07T03:05:15.853Z,50.90
2022-10-07T03:06:15.821Z,51.06
2022-10-07T03:07:15.808Z,51.00
2022-10-07T03:08:15.819Z,51.28
2022-10-07T03:09:15.783Z,51.43
2022-10-07T03:10:15.762Z,51.15
2022-10-07T03:11:15.742Z,51.28
2022-10-07T03:12:15.752Z,51.43
2022-10-07T03:13:15.762Z,51.34
2022-10-07T03:14:15.706Z,51.34
2022-10-07T03:15:15.702Z,51.37
2022-10-07T03:16:15.813Z,51.50
2022-10-07T03:17:15.684Z,51.53
2022-10-07T03:18:15.706Z,51.53
2022-10-07T03:19:15.671Z,51.53
2022-10-07T03:20:15.649Z,51.62
2022-10-07T03:21:15.643Z,51.37
2022-10-07T03:22:15.624Z,51.40
2022-10-07T03:23:15.596Z,51.37
2022-10-07T03:24:15.585Z,51.62
2022-10-07T03:25:15.564Z,51.69
2022-10-07T03:26:15.581Z,51.37
2022-10-07T03:27:15.562Z,51.59
2022-10-07T03:28:15.573Z,51.56
2022-10-07T03:29:15.539Z,51.66
2022-10-07T03:30:15.546Z,51.59
2022-10-07T03:31:15.657Z,51.66
2022-10-07T03:32:15.531Z,51.78
2022-10-07T03:33:15.461Z,51.62
2022-10-07T03:34:15.451Z,51.85
2022-10-07T03:35:15.428Z,51.66
2022-10-07T03:36:15.486Z,51.82
2022-10-07T03:37:15.399Z,51.82
2022-10-07T03:38:15.398Z,51.91
2022-10-07T03:39:15.371Z,51.88
2022-10-07T03:40:15.380Z,51.91
2022-10-07T03:41:15.379Z,52.14
2022-10-07T03:42:15.346Z,51.98
2022-10-07T03:43:15.341Z,52.11
2022-10-07T03:44:15.318Z,52.11
2022-10-07T03:45:15.327Z,52.30
2022-10-07T03:46:15.332Z,52.37
2022-10-07T03:47:15.283Z,52.50
2022-10-07T03:48:15.282Z,52.60
2022-10-07T03:49:15.263Z,52.14
2022-10-07T03:50:15.244Z,52.11
2022-10-07T03:51:15.225Z,52.17
2022-10-07T03:52:15.224Z,52.11
2022-10-07T03:53:15.206Z,52.30
2022-10-07T03:54:15.195Z,52.24
2022-10-07T03:55:15.186Z,52.40
2022-10-07T03:56:15.320Z,52.33
2022-10-07T03:57:15.161Z,52.53
2022-10-07T03:58:15.138Z,52.60
2022-10-07T03:59:15.106Z,52.24
2022-10-07T04:00:15.101Z,52.47
2022-10-07T04:01:15.218Z,52.56
2022-10-07T04:02:15.071Z,52.56
2022-10-07T04:03:15.139Z,52.60
2022-10-07T04:04:15.069Z,52.56
2022-10-07T04:05:15.043Z,52.66
2022-10-07T04:06:15.021Z,52.63
2022-10-07T04:07:15.035Z,52.73
2022-10-07T04:08:15.033Z,52.76
2022-10-07T04:09:14.992Z,52.86
2022-10-07T04:10:14.982Z,52.83
2022-10-07T04:11:14.972Z,52.96
2022-10-07T04:12:14.943Z,52.86
2022-10-07T04:13:14.937Z,53.03
2022-10-07T04:14:14.934Z,53.03
2022-10-07T04:15:14.910Z,53.06
2022-10-07T04:16:14.951Z,53.17
2022-10-07T04:17:14.884Z,53.37
2022-10-07T04:18:14.882Z,53.33
2022-10-07T04:19:14.884Z,53.64
2022-10-07T04:20:14.861Z,53.64
2022-10-07T04:21:14.812Z,53.68
2022-10-07T04:22:14.812Z,53.68
2022-10-07T04:23:14.804Z,53.81
2022-10-07T04:24:14.781Z,53.99
2022-10-07T04:25:14.790Z,54.06
2022-10-07T04:26:14.770Z,53.74
2022-10-07T04:27:33.799Z,53.92
2022-10-07T04:28:14.767Z,54.13
2022-10-07T04:29:14.723Z,54.30
2022-10-07T04:30:14.708Z,54.41
2022-10-07T04:31:14.796Z,54.48
2022-10-07T04:32:14.688Z,54.34
2022-10-07T04:33:14.669Z,54.69
2022-10-07T04:34:14.673Z,54.37
2022-10-07T04:35:14.647Z,54.55
2022-10-07T04:36:14.638Z,54.27
2022-10-07T04:37:14.613Z,54.55
2022-10-07T04:38:14.600Z,54.62
2022-10-07T04:39:14.576Z,54.27
2022-10-07T04:40:14.570Z,54.34
2022-10-07T04:41:14.562Z,54.62
2022-10-07T04:42:14.553Z,54.51
2022-10-07T04:43:14.555Z,54.69
2022-10-07T04:44:14.530Z,54.55
2022-10-07T04:45:14.521Z,54.69
2022-10-07T04:46:14.627Z,55.09
2022-10-07T04:47:14.590Z,54.84
2022-10-07T04:48:14.486Z,54.73
2022-10-07T04:49:14.466Z,55.09
2022-10-07T04:50:14.433Z,55.12
2022-10-07T04:51:14.421Z,55.05
2022-10-07T04:52:14.419Z,55.16
2022-10-07T04:53:14.398Z,55.38
2022-10-07T04:54:14.378Z,55.27
2022-10-07T04:55:14.379Z,55.31
2022-10-07T04:56:14.372Z,55.20
2022-10-07T04:57:14.360Z,55.49
2022-10-07T04:58:14.335Z,55.53
2022-10-07T04:59:14.318Z,55.56
2022-10-07T05:00:14.310Z,55.82
2022-10-07T05:01:14.363Z,55.75
2022-10-07T05:02:14.405Z,55.53
2022-10-07T05:03:14.266Z,55.75
2022-10-07T05:04:14.276Z,55.93
2022-10-07T05:05:14.266Z,55.86
2022-10-07T05:06:14.217Z,55.71
2022-10-07T05:07:14.225Z,55.86
2022-10-07T05:08:14.193Z,56.01
2022-10-07T05:09:14.183Z,55.82
2022-10-07T05:10:14.194Z,55.90
2022-10-07T05:11:14.158Z,55.82
2022-10-07T05:12:14.154Z,56.01
2022-10-07T05:13:14.125Z,56.16
2022-10-07T05:14:14.121Z,55.90
2022-10-07T05:15:14.123Z,55.67
2022-10-07T05:16:14.115Z,55.97
2022-10-07T05:17:14.099Z,55.90
2022-10-07T05:18:14.055Z,56.20
2022-10-07T05:19:14.070Z,56.16
2022-10-07T05:20:14.031Z,56.08
2022-10-07T05:21:14.023Z,55.97
2022-10-07T05:22:14.004Z,56.01
2022-10-07T05:23:14.021Z,55.97
2022-10-07T05:24:13.979Z,56.16
2022-10-07T05:25:13.983Z,56.05
2022-10-07T05:26:14.115Z,56.46
2022-10-07T05:27:13.959Z,55.97
2022-10-07T05:28:14.004Z,56.12
2022-10-07T05:29:13.959Z,56.24
2022-10-07T05:30:13.917Z,56.35
2022-10-07T05:31:13.949Z,56.35
2022-10-07T05:32:13.872Z,56.24
2022-10-07T05:33:13.878Z,56.65
2022-10-07T05:34:13.838Z,56.46
2022-10-07T05:35:13.865Z,56.58
2022-10-07T05:36:13.835Z,56.35
2022-10-07T05:37:13.807Z,56.54
2022-10-07T05:38:13.803Z,56.16
2022-10-07T05:39:13.791Z,56.16
2022-10-07T05:40:13.785Z,56.46
2022-10-07T05:41:13.782Z,56.62
2022-10-07T05:42:13.764Z,56.42
2022-10-07T05:43:13.745Z,56.42
2022-10-07T05:44:13.724Z,56.50
2022-10-07T05:45:13.733Z,56.35
2022-10-07T05:46:13.767Z,56.16
2022-10-07T05:47:13.699Z,56.39
2022-10-07T05:48:13.658Z,56.39
2022-10-07T05:49:13.652Z,56.05
2022-10-07T05:50:13.630Z,56.31
2022-10-07T05:51:13.650Z,56.39
2022-10-07T05:52:13.606Z,56.27
2022-10-07T05:53:13.621Z,56.16
2022-10-07T05:54:13.583Z,56.31
2022-10-07T05:55:13.598Z,56.27
2022-10-07T05:56:13.580Z,56.24
2022-10-07T05:57:13.609Z,56.24
2022-10-07T05:58:13.529Z,55.86
2022-10-07T05:59:13.540Z,56.05
2022-10-07T06:00:13.520Z,55.93
2022-10-07T06:01:14.289Z,55.86
2022-10-07T06:02:13.643Z,55.93
2022-10-07T06:03:13.522Z,56.16
2022-10-07T06:04:13.453Z,56.12
2022-10-07T06:05:13.443Z,55.90
2022-10-07T06:06:13.425Z,55.97
2022-10-07T06:07:16.962Z,56.05
2022-10-07T06:08:13.401Z,56.12
2022-10-07T06:09:13.409Z,56.31
2022-10-07T06:10:13.377Z,56.08
2022-10-07T06:11:13.382Z,55.97
2022-10-07T06:12:13.365Z,56.31
2022-10-07T06:13:13.362Z,55.97
2022-10-07T06:14:13.340Z,55.97
2022-10-07T06:15:13.314Z,55.90
2022-10-07T06:16:13.382Z,55.86
2022-10-07T06:17:13.286Z,55.93
2022-10-07T06:18:13.299Z,55.90
2022-10-07T06:19:13.261Z,55.60
2022-10-07T06:20:13.240Z,55.45
2022-10-07T06:21:13.257Z,55.67
2022-10-07T06:22:13.244Z,55.75
2022-10-07T06:23:13.211Z,56.20
2022-10-07T06:24:13.226Z,55.78
2022-10-07T06:25:13.178Z,55.53
2022-10-07T06:26:13.165Z,55.60
2022-10-07T06:27:13.156Z,55.75
2022-10-07T06:28:13.181Z,55.67
2022-10-07T06:29:13.130Z,55.82
2022-10-07T06:30:13.131Z,55.71
2022-10-07T06:31:13.175Z,55.27
2022-10-07T06:32:13.105Z,55.64
2022-10-07T06:33:13.078Z,55.12
2022-10-07T06:34:13.086Z,55.42
2022-10-07T06:35:13.071Z,55.71
2022-10-07T06:36:13.030Z,55.31
2022-10-07T06:37:13.029Z,55.09
2022-10-07T06:38:13.039Z,55.05
2022-10-07T06:39:13.033Z,55.16
2022-10-07T06:40:12.984Z,55.31
2022-10-07T06:41:12.993Z,54.84
2022-10-07T06:42:12.973Z,54.84
2022-10-07T06:43:12.989Z,54.91
2022-10-07T06:44:12.930Z,54.91
2022-10-07T06:45:12.938Z,54.98
2022-10-07T06:46:12.991Z,54.91
2022-10-07T06:47:12.914Z,54.98
2022-10-07T06:48:12.874Z,54.58
2022-10-07T06:49:12.895Z,54.41
2022-10-07T06:50:12.887Z,53.99
2022-10-07T06:51:12.868Z,53.81
2022-10-07T06:52:12.844Z,53.40
2022-10-07T06:53:12.819Z,53.50
2022-10-07T06:54:12.837Z,53.54
2022-10-07T06:55:12.793Z,53.06
2022-10-07T06:56:12.789Z,53.17
2022-10-07T06:57:40.555Z,53.47
2022-10-07T06:58:12.766Z,53.20
2022-10-07T06:59:12.745Z,53.33
2022-10-07T07:00:12.744Z,53.13
2022-10-07T07:01:12.868Z,53.37
2022-10-07T07:02:12.781Z,53.68
2022-10-07T07:03:12.683Z,53.44
2022-10-07T07:04:12.685Z,54.13
2022-10-07T07:05:12.675Z,54.58
2022-10-07T07:06:12.658Z,55.12
2022-10-07T07:07:12.669Z,55.78
2022-10-07T07:08:12.634Z,55.90
2022-10-07T07:09:12.625Z,56.58
2022-10-07T07:10:12.604Z,57.04
2022-10-07T07:11:12.584Z,58.07
2022-10-07T07:12:12.597Z,58.35
2022-10-07T07:13:12.588Z,58.92
2022-10-07T07:14:12.533Z,59.09
2022-10-07T07:15:12.526Z,59.90
2022-10-07T07:16:12.647Z,60.11
2022-10-07T07:17:12.641Z,60.68
2022-10-07T07:18:12.521Z,61.25
2022-10-07T07:19:12.514Z,61.43
2022-10-07T07:20:12.462Z,61.84
2022-10-07T07:21:12.472Z,62.21
2022-10-07T07:22:12.432Z,63.00
2022-10-07T07:23:12.469Z,64.36
2022-10-07T07:24:12.419Z,65.11
2022-10-07T07:25:12.395Z,66.93
2022-10-07T07:26:12.385Z,69.20
2022-10-07T07:27:12.429Z,69.49
2022-10-07T07:28:12.442Z,70.24
2022-10-07T07:29:12.383Z,70.72
2022-10-07T07:30:12.364Z,73.06
2022-10-07T07:31:12.382Z,72.68
2022-10-07T07:32:12.363Z,72.56
2022-10-07T07:33:12.348Z,72.93
2022-10-07T07:34:12.349Z,72.81
2022-10-07T07:35:12.349Z,72.75
2022-10-07T07:36:12.312Z,72.81
2022-10-07T07:37:12.272Z,72.87
2022-10-07T07:38:12.292Z,72.93
2022-10-07T07:39:12.331Z,73.51
2022-10-07T07:40:12.225Z,72.75
2022-10-07T07:41:12.295Z,73.00
2022-10-07T07:42:12.249Z,75.43
2022-10-07T07:43:12.189Z,78.25
2022-10-07T07:44:12.203Z,78.76
2022-10-07T07:45:12.148Z,79.89
2022-10-07T07:46:12.260Z,82.65
2022-10-07T07:47:12.363Z,85.96
2022-10-07T07:48:12.096Z,89.74
2022-10-07T07:49:12.103Z,93.44
2022-10-07T07:50:12.101Z,93.89
2022-10-07T07:51:12.063Z,95.22
2022-10-07T07:52:12.055Z,95.93
2022-10-07T07:53:12.049Z,100.24
2022-10-07T07:54:12.033Z,102.95
2022-10-07T07:55:12.005Z,105.68
2022-10-07T07:56:12.015Z,108.91
2022-10-07T07:57:11.994Z,110.63
2022-10-07T07:58:12.146Z,112.04
2022-10-07T07:59:11.956Z,118.46
2022-10-07T08:00:11.938Z,122.89
2022-10-07T08:01:11.989Z,123.71
2022-10-07T08:02:12.023Z,129.54
2022-10-07T08:03:11.914Z,133.79
2022-10-07T08:04:11.906Z,137.63
2022-10-07T08:05:11.889Z,140.28
2022-10-07T08:06:11.873Z,142.67
2022-10-07T08:07:11.845Z,143.65
2022-10-07T08:08:11.867Z,140.76
2022-10-07T08:09:11.853Z,141.59
2022-10-07T08:10:11.818Z,140.17
2022-10-07T08:11:11.811Z,141.47
2022-10-07T08:12:11.814Z,142.80
2022-10-07T08:13:11.766Z,148.89
2022-10-07T08:14:11.765Z,155.52
2022-10-07T08:15:11.767Z,157.87
2022-10-07T08:16:11.780Z,162.31
2022-10-07T08:17:11.750Z,166.17
2022-10-07T08:18:11.712Z,168.34
2022-10-07T08:19:11.725Z,166.01
2022-10-07T08:20:11.690Z,166.50
2022-10-07T08:21:11.707Z,172.86
2022-10-07T08:22:11.677Z,177.81
2022-10-07T08:23:11.644Z,177.25
2022-10-07T08:24:11.651Z,180.88
2022-10-07T08:25:11.616Z,187.15
2022-10-07T08:26:11.644Z,194.35
2022-10-07T08:27:11.663Z,196.32
2022-10-07T08:28:11.644Z,202.85
2022-10-07T08:29:11.619Z,203.47
2022-10-07T08:30:11.691Z,217.59
2022-10-07T08:31:11.622Z,227.98
2022-10-07T08:32:11.505Z,239.42
2022-10-07T08:33:11.526Z,246.59
2022-10-07T08:34:11.518Z,259.41
2022-10-07T08:35:11.494Z,269.16
2022-10-07T08:36:11.457Z,275.00
2022-10-07T08:37:11.441Z,279.67
2022-10-07T08:38:14.382Z,290.79
2022-10-07T08:39:11.478Z,300.33
2022-10-07T08:40:11.428Z,304.50
2022-10-07T08:41:11.411Z,305.34
2022-10-07T08:42:11.386Z,314.98
2022-10-07T08:43:11.395Z,318.33
2022-10-07T08:44:16.376Z,328.82
2022-10-07T08:45:11.362Z,334.83
2022-10-07T08:46:11.401Z,345.37
2022-10-07T08:47:11.331Z,345.01
2022-10-07T08:48:11.318Z,349.03
2022-10-07T08:49:11.301Z,363.27
2022-10-07T08:50:15.166Z,372.73
2022-10-07T08:51:11.274Z,387.57
2022-10-07T08:52:11.240Z,407.14
2022-10-07T08:53:11.253Z,412.15
2022-10-07T08:54:11.217Z,413.42
2022-10-07T08:55:11.233Z,425.51
2022-10-07T08:56:11.212Z,436.61
2022-10-07T08:57:11.186Z,444.15
2022-10-07T08:58:11.182Z,456.57
2022-10-07T08:59:11.158Z,460.02
2022-10-07T09:00:11.261Z,477.75
2022-10-07T09:01:11.219Z,492.15
2022-10-07T09:02:11.145Z,506.30
2022-10-07T09:03:11.106Z,523.73
2022-10-07T09:04:11.103Z,527.03
2022-10-07T09:05:11.098Z,542.85
2022-10-07T09:06:11.079Z,561.05
2022-10-07T09:07:11.072Z,572.08
2022-10-07T09:08:11.087Z,583.04
2022-10-07T09:09:11.043Z,596.02
2022-10-07T09:10:11.010Z,606.83
2022-10-07T09:11:11.021Z,613.50
2022-10-07T09:12:11.021Z,607.38
2022-10-07T09:13:11.007Z,620.32
2022-10-07T09:14:10.975Z,635.04
2022-10-07T09:15:11.029Z,649.84
2022-10-07T09:16:10.979Z,656.85
2022-10-07T09:17:10.925Z,655.56
2022-10-07T09:18:10.963Z,671.34
2022-10-07T09:19:10.893Z,663.36
2022-10-07T09:20:10.925Z,658.79
2022-10-07T09:21:10.873Z,674.05
2022-10-07T09:22:10.855Z,685.79
2022-10-07T09:23:10.857Z,692.89
2022-10-07T09:24:10.891Z,722.04
2022-10-07T09:25:11.462Z,746.93
2022-10-07T09:26:10.805Z,756.63
2022-10-07T09:27:10.803Z,782.25
2022-10-07T09:28:10.805Z,788.23
2022-10-07T09:29:10.899Z,782.25
2022-10-07T09:30:10.770Z,790.09
2022-10-07T09:31:10.792Z,802.88
2022-10-07T09:32:10.726Z,801.43
2022-10-07T09:33:10.702Z,807.23
2022-10-07T09:34:10.723Z,838.02
2022-10-07T09:35:10.710Z,874.10
2022-10-07T09:36:10.669Z,914.05
2022-10-07T09:37:10.675Z,951.03
2022-10-07T09:38:10.661Z,966.11
2022-10-07T09:39:10.623Z,980.97
2022-10-07T09:40:10.655Z,981.68
2022-10-07T09:41:10.619Z,997.77
2022-10-07T09:42:10.627Z,1030.77
2022-10-07T09:43:10.591Z,1037.95
2022-10-07T09:44:10.585Z,1053.46
2022-10-07T09:45:10.553Z,1072.00
2022-10-07T09:46:10.599Z,1086.78
2022-10-07T09:47:10.527Z,1116.67
2022-10-07T09:48:10.530Z,1121.34
2022-10-07T09:49:10.493Z,1135.59
2022-10-07T09:50:10.512Z,1109.27
2022-10-07T09:51:10.485Z,1093.88
2022-10-07T09:52:10.473Z,1085.02
2022-10-07T09:53:10.458Z,1085.90
2022-10-07T09:54:10.456Z,1116.67
2022-10-07T09:55:10.416Z,1127.95
2022-10-07T09:56:10.429Z,1153.18
2022-10-07T09:57:10.433Z,1145.30
2022-10-07T09:58:10.417Z,1146.28
2022-10-07T09:59:10.402Z,1137.52
2022-10-07T10:00:10.371Z,1141.40
2022-10-07T10:01:10.360Z,1117.60
2022-10-07T10:02:10.434Z,1114.81
2022-10-07T10:03:10.414Z,1119.46
2022-10-07T10:04:10.305Z,1118.53
2022-10-07T10:05:10.310Z,1134.63
2022-10-07T10:06:10.287Z,1135.59
2022-10-07T10:07:10.283Z,1144.32
2022-10-07T10:08:10.294Z,1185.84
2022-10-07T10:09:10.267Z,1197.50
2022-10-07T10:10:10.270Z,1201.79
2022-10-07T10:11:10.212Z,1207.21
2022-10-07T10:12:10.228Z,1198.57
2022-10-07T10:13:10.228Z,1191.11
2022-10-07T10:14:10.203Z,1206.12
2022-10-07T10:15:10.171Z,1211.57
2022-10-07T10:16:10.233Z,1225.98
2022-10-07T10:17:10.153Z,1215.97
2022-10-07T10:18:10.152Z,1196.43
2022-10-07T10:19:10.110Z,1184.79
2022-10-07T10:20:10.103Z,1211.57
2022-10-07T10:21:10.104Z,1210.48
2022-10-07T10:22:10.103Z,1232.75
2022-10-07T10:23:10.061Z,1245.35
2022-10-07T10:24:10.082Z,1262.96
2022-10-07T10:25:10.037Z,1261.77
2022-10-07T10:26:10.021Z,1293.44
2022-10-07T10:27:10.034Z,1325.42
2022-10-07T10:28:10.030Z,1294.69
2022-10-07T10:29:09.986Z,1255.86
2022-10-07T10:30:09.971Z,1245.35
2022-10-07T10:31:09.998Z,1250.00
2022-10-07T10:32:09.954Z,1276.19
2022-10-07T10:33:09.926Z,1307.32
2022-10-07T10:34:09.921Z,1334.66
2022-10-07T10:35:09.932Z,1410.53
2022-10-07T10:36:09.914Z,1430.10
2022-10-07T10:37:13.750Z,1425.53
2022-10-07T10:38:09.873Z,1445.52
2022-10-07T10:39:09.877Z,1440.86
2022-10-07T10:40:09.844Z,1433.16
2022-10-07T10:41:10.113Z,1427.05
2022-10-07T10:42:09.823Z,1439.31
2022-10-07T10:43:09.831Z,1472.53
2022-10-07T10:44:09.813Z,1497.21
2022-10-07T10:45:09.811Z,1498.88
2022-10-07T10:46:09.836Z,1487.24
2022-10-07T10:47:09.777Z,1509.01
2022-10-07T10:48:09.749Z,1544.67
2022-10-07T10:49:09.743Z,1570.93
2022-10-07T10:50:09.715Z,1604.79
2022-10-07T10:51:09.726Z,1678.15
2022-10-07T10:52:13.266Z,1697.28
2022-10-07T10:53:09.688Z,1721.26
2022-10-07T10:54:09.685Z,1758.53
2022-10-07T10:55:09.672Z,1793.84
2022-10-07T10:56:09.670Z,1830.60
2022-10-07T10:57:09.646Z,1874.13
2022-10-07T10:58:09.613Z,1888.65
2022-10-07T10:59:09.613Z,1928.06
2022-10-07T11:00:09.591Z,1959.06
2022-10-07T11:01:09.584Z,1954.78
2022-10-07T11:02:09.642Z,1946.26
2022-10-07T11:03:09.602Z,1910.19
2022-10-07T11:04:09.540Z,1907.47
2022-10-07T11:05:09.537Z,1908.83
2022-10-07T11:06:09.530Z,1879.38
2022-10-07T11:07:09.534Z,1812.04
2022-10-07T11:08:09.502Z,1792.64
2022-10-07T11:09:09.491Z,1812.04
2022-10-07T11:10:09.461Z,1824.37
2022-10-07T11:11:09.472Z,1878.06
2022-10-07T11:12:09.443Z,1911.55
2022-10-07T11:13:09.418Z,1932.23
2022-10-07T11:14:09.429Z,2000.00
2022-10-07T11:15:09.408Z,2000.00
2022-10-07T11:16:09.435Z,2038.02
2022-10-07T11:17:09.395Z,2063.12
2022-10-07T11:18:09.377Z,2098.67
2022-10-07T11:19:09.361Z,2082.36
2022-10-07T11:20:09.356Z,2074.30
2022-10-07T11:21:09.325Z,2055.21
2022-10-07T11:22:09.319Z,2030.30
2022-10-07T11:23:09.303Z,2028.77
2022-10-07T11:24:09.284Z,2007.49
2022-10-07T11:25:09.284Z,2018.07
2022-10-07T11:26:09.276Z,2042.68
2022-10-07T11:27:09.239Z,2041.13
2022-10-07T11:28:09.306Z,2048.93
2022-10-07T11:29:09.227Z,2004.49
2022-10-07T11:30:09.209Z,1997.02
2022-10-07T11:31:09.249Z,2018.07
2022-10-07T11:32:09.279Z,2069.50
2022-10-07T11:33:09.160Z,2105.26
2022-10-07T11:34:09.187Z,2138.87
2022-10-07T11:35:09.136Z,2157.81
2022-10-07T11:36:09.245Z,2161.29
2022-10-07T11:37:09.129Z,2237.06
2022-10-07T11:38:09.106Z,2330.43
2022-10-07T11:39:09.100Z,2330.43
2022-10-07T11:40:09.100Z,2332.46
2022-10-07T11:41:09.064Z,2423.15
2022-10-07T11:42:09.054Z,2447.49
2022-10-07T11:43:09.071Z,2488.39
2022-10-07T11:44:09.051Z,2547.53
2022-10-07T11:45:09.032Z,2564.59
2022-10-07T11:46:11.497Z,2604.47
2022-10-07T11:47:09.000Z,2609.54
2022-10-07T11:48:08.999Z,2643.00
2022-10-07T11:49:08.960Z,2630.03
2022-10-07T11:50:08.978Z,2698.89
2022-10-07T11:51:08.951Z,2701.61
2022-10-07T11:52:08.943Z,2751.54
2022-10-07T11:53:08.925Z,2682.68
2022-10-07T11:54:08.918Z,2645.61
2022-10-07T11:55:08.889Z,2624.88
2022-10-07T11:56:08.884Z,2617.19
2022-10-07T11:57:08.876Z,2599.42
2022-10-07T11:58:08.872Z,2612.09
2022-10-07T11:59:08.841Z,2604.47
2022-10-07T12:00:08.863Z,2627.45
2022-10-07T12:01:08.813Z,2669.32
2022-10-07T12:02:08.886Z,2632.61
2022-10-07T12:03:08.809Z,2627.45
2022-10-07T12:04:08.775Z,2607.00
2022-10-07T12:05:08.805Z,2584.38
2022-10-07T12:06:08.768Z,2552.38
2022-10-07T12:07:08.754Z,2516.43
2022-10-07T12:08:08.733Z,2486.08
2022-10-07T12:09:08.702Z,2528.30
2022-10-07T12:10:08.731Z,2569.51
2022-10-07T12:11:08.702Z,2547.53
2022-10-07T12:12:08.669Z,2589.37
2022-10-07T12:13:08.690Z,2627.45
2022-10-07T12:14:08.654Z,2685.37
2022-10-07T12:15:08.661Z,2693.47
2022-10-07T12:16:08.700Z,2701.61
2022-10-07T12:17:08.621Z,2674.65
2022-10-07T12:18:08.652Z,2666.67
2022-10-07T12:19:09.442Z,2671.98
2022-10-07T12:20:08.574Z,2723.58
2022-10-07T12:21:08.562Z,2768.59
2022-10-07T12:22:08.559Z,2827.00
2022-10-07T12:23:08.554Z,2860.19
2022-10-07T12:24:08.559Z,2881.72
2022-10-07T12:25:11.116Z,2881.72
2022-10-07T12:26:08.521Z,2909.88
2022-10-07T12:27:08.481Z,2932.17
2022-10-07T12:28:08.503Z,2961.33
2022-10-07T12:29:08.465Z,2935.38
2022-10-07T12:30:08.474Z,3012.93
2022-10-07T12:31:08.485Z,3112.66
2022-10-07T12:32:08.437Z,3186.68
2022-10-07T12:33:08.413Z,3236.72
2022-10-07T12:34:08.419Z,3182.90
2022-10-07T12:35:08.388Z,3203.82
2022-10-07T12:36:08.392Z,3198.09
2022-10-07T12:37:08.361Z,3240.63